createdAt,value
2023-04-27T00:03:49.620Z,44.32
2023-04-27T00:08:51.934Z,44.06
2023-04-27T00:13:54.153Z,44.61
2023-04-27T00:18:56.261Z,44.18
2023-04-27T00:23:58.593Z,44.36
2023-04-27T00:29:00.719Z,44.96
2023-04-27T00:34:02.879Z,44.71
2023-04-27T00:39:06.673Z,44.53
2023-04-27T00:44:08.869Z,44.81
2023-04-27T00:49:11.302Z,44.94
2023-04-27T00:54:16.215Z,45.41
2023-04-27T00:59:19.996Z,45.94
2023-04-27T01:04:22.707Z,46.11
2023-04-27T01:09:24.969Z,45.96
2023-04-27T01:14:27.094Z,45.73
2023-04-27T01:19:29.283Z,45.68
2023-04-27T01:24:31.518Z,45.61
2023-04-27T01:29:33.618Z,45.11
2023-04-27T01:34:35.909Z,44.92
2023-04-27T01:39:38.876Z,44.45
2023-04-27T01:44:41.513Z,44.12
2023-04-27T01:49:44.643Z,43.95
2023-04-27T01:54:46.802Z,43.70
2023-04-27T01:59:48.963Z,43.67
2023-04-27T02:04:51.271Z,43.20
2023-04-27T02:09:53.622Z,43.07
2023-04-27T02:14:55.965Z,42.99
2023-04-27T02:19:58.274Z,43.25
2023-04-27T02:25:00.902Z,43.79
2023-04-27T02:30:06.276Z,43.97
2023-04-27T02:35:09.976Z,44.28
2023-04-27T02:40:13.152Z,44.07
2023-04-27T02:45:15.376Z,44.40
2023-04-27T02:50:17.778Z,44.46
2023-04-27T02:55:21.788Z,43.99
2023-04-27T03:00:24.336Z,44.07
2023-04-27T03:05:28.720Z,44.22
2023-04-27T03:10:30.952Z,43.53
2023-04-27T03:15:33.153Z,44.29
2023-04-27T03:20:35.463Z,43.78
2023-04-27T03:25:37.692Z,43.82
2023-04-27T03:30:41.630Z,43.64
2023-04-27T03:35:43.832Z,43.56
2023-04-27T03:40:46.032Z,43.43
2023-04-27T03:45:48.724Z,43.85
2023-04-27T03:50:51.277Z,44.00
2023-04-27T03:55:53.484Z,43.96
2023-04-27T04:00:57.703Z,44.35
2023-04-27T04:05:59.934Z,44.49
2023-04-27T04:11:02.165Z,45.56
2023-04-27T04:16:09.222Z,45.09
2023-04-27T04:21:11.719Z,45.80
2023-04-27T04:26:15.377Z,46.40
2023-04-27T04:31:18.638Z,46.08
2023-04-27T04:36:20.937Z,48.50
2023-04-27T04:41:24.203Z,47.25
2023-04-27T04:46:26.466Z,46.51
2023-04-27T04:51:28.655Z,46.66
2023-04-27T04:56:30.982Z,46.56
2023-04-27T05:01:33.296Z,46.30
2023-04-27T05:06:35.536Z,45.94
2023-04-27T05:11:37.757Z,46.67
2023-04-27T05:16:40.142Z,46.55
2023-04-27T05:21:42.515Z,45.98
2023-04-27T05:26:44.760Z,45.52
2023-04-27T05:31:47.086Z,44.63
2023-04-27T05:36:49.384Z,44.26
2023-04-27T05:41:51.871Z,44.00
2023-04-27T05:46:54.032Z,43.25
2023-04-27T05:51:56.408Z,42.72
2023-04-27T05:56:58.547Z,41.62
2023-04-27T06:02:00.849Z,40.78
2023-04-27T06:07:08.434Z,40.80
2023-04-27T06:12:10.656Z,41.17
2023-04-27T06:17:12.900Z,40.99
2023-04-27T06:22:15.064Z,40.43
2023-04-27T06:27:17.286Z,40.42
2023-04-27T06:32:19.861Z,39.67
2023-04-27T06:37:22.364Z,39.03
2023-04-27T06:42:24.720Z,37.93
2023-04-27T06:47:26.890Z,38.36
2023-04-27T06:52:29.047Z,37.83
2023-04-27T06:57:31.521Z,37.41
2023-04-27T07:02:33.961Z,36.55
2023-04-27T07:07:36.535Z,35.36
2023-04-27T07:12:39.250Z,35.54
2023-04-27T07:17:42.024Z,35.19
2023-04-27T07:22:45.251Z,35.24
2023-04-27T07:27:47.574Z,35.15
2023-04-27T07:32:54.936Z,34.30
2023-04-27T07:37:57.251Z,34.53
2023-04-27T07:43:00.206Z,33.59
2023-04-27T07:48:02.729Z,34.17
2023-04-27T07:53:05.022Z,33.73
2023-04-27T07:58:07.465Z,33.28
2023-04-27T08:03:09.983Z,32.94
2023-04-27T08:08:12.742Z,32.45
2023-04-27T08:13:14.964Z,31.61
2023-04-27T08:18:18.255Z,32.02
2023-04-27T08:23:20.550Z,33.57
2023-04-27T08:28:23.784Z,32.31
2023-04-27T08:33:25.995Z,31.83
2023-04-27T08:38:28.094Z,31.82
2023-04-27T08:43:36.919Z,31.87
2023-04-27T08:48:39.016Z,31.94
2023-04-27T08:53:49.621Z,31.47
2023-04-27T08:58:56.038Z,30.87
2023-04-27T09:04:02.660Z,31.76
2023-04-27T09:09:05.257Z,31.50
2023-04-27T09:14:19.343Z,31.13
2023-04-27T09:19:25.820Z,30.52
2023-04-27T09:24:29.357Z,30.50
2023-04-27T09:29:36.698Z,30.21
2023-04-27T09:34:40.484Z,31.88
2023-04-27T09:39:43.474Z,31.05
2023-04-27T09:44:46.286Z,31.11
2023-04-27T09:49:51.280Z,29.68
2023-04-27T09:54:58.541Z,29.02
2023-04-27T10:00:50.303Z,29.48
2023-04-27T10:06:27.284Z,29.54
2023-04-27T10:11:44.719Z,28.52
2023-04-27T10:16:51.410Z,29.25
2023-04-27T10:22:03.668Z,28.74
2023-04-27T10:27:08.218Z,28.34
2023-04-27T10:32:13.576Z,27.28
2023-04-27T10:37:16.678Z,27.21
2023-04-27T10:42:29.150Z,27.79
2023-04-27T10:47:42.292Z,27.70
2023-04-27T10:52:44.979Z,28.27
2023-04-27T10:57:51.991Z,28.18
2023-04-27T11:02:55.861Z,28.82
2023-04-27T11:08:19.277Z,27.54
2023-04-27T11:13:24.083Z,27.85
2023-04-27T11:18:30.135Z,26.65
2023-04-27T11:23:39.992Z,27.29
2023-04-27T11:28:44.169Z,27.09
2023-04-27T11:33:50.483Z,26.59
2023-04-27T11:38:58.398Z,26.50
2023-04-27T11:44:10.805Z,26.41
2023-04-27T11:49:13.361Z,27.12
2023-04-27T11:54:16.578Z,26.47
2023-04-27T11:59:27.992Z,26.16
2023-04-27T12:04:31.448Z,26.37
2023-04-27T12:09:34.329Z,25.83
2023-04-27T12:14:37.420Z,25.70
2023-04-27T12:19:39.653Z,25.43
2023-04-27T12:24:43.028Z,26.70
2023-04-27T12:29:45.266Z,26.06
2023-04-27T12:34:47.924Z,26.17
2023-04-27T12:39:50.418Z,25.29
2023-04-27T12:44:52.881Z,26.06
2023-04-27T12:49:55.252Z,26.34
2023-04-27T12:54:59.664Z,25.65
2023-04-27T13:00:02.449Z,25.35
2023-04-27T13:05:06.589Z,25.77
2023-04-27T13:10:09.233Z,24.89
2023-04-27T13:15:11.738Z,25.16
2023-04-27T13:20:14.001Z,24.95
2023-04-27T13:25:17.279Z,24.64
2023-04-27T13:30:19.509Z,25.47
2023-04-27T13:35:21.840Z,24.14
2023-04-27T13:40:24.114Z,23.68
2023-04-27T13:45:26.402Z,23.54
2023-04-27T13:50:28.756Z,22.99
2023-04-27T13:55:31.213Z,23.82
2023-04-27T14:00:37.116Z,24.34
2023-04-27T14:05:39.319Z,24.29
2023-04-27T14:10:42.192Z,24.36
2023-04-27T14:15:44.426Z,24.33
2023-04-27T14:20:46.924Z,23.92
2023-04-27T14:25:49.087Z,24.11
2023-04-27T14:30:52.104Z,23.62
2023-04-27T14:35:54.831Z,22.99
2023-04-27T14:40:57.224Z,22.90
2023-04-27T14:46:05.118Z,22.39
2023-04-27T14:51:23.408Z,22.26
2023-04-27T14:56:25.840Z,21.60
2023-04-27T15:01:28.162Z,21.21
2023-04-27T15:06:30.855Z,20.72
2023-04-27T15:11:33.326Z,19.44
2023-04-27T15:16:35.936Z,18.02
2023-04-27T15:21:38.396Z,16.48
2023-04-27T15:26:41.578Z,16.17
2023-04-27T15:31:44.003Z,15.58
2023-04-27T15:36:46.914Z,15.10
2023-04-27T15:41:49.494Z,14.38
2023-04-27T15:46:51.787Z,14.24
2023-04-27T15:51:55.706Z,13.85
2023-04-27T15:57:01.486Z,13.61
2023-04-27T16:02:04.252Z,14.05
2023-04-27T16:07:09.849Z,14.00
2023-04-27T16:12:12.124Z,13.71
2023-04-27T16:17:14.860Z,13.75
2023-04-27T16:22:17.568Z,14.36
2023-04-27T16:27:21.264Z,14.85
2023-04-27T16:32:23.802Z,15.65
2023-04-27T16:37:26.044Z,17.78
2023-04-27T16:42:28.268Z,19.53
2023-04-27T16:47:31.842Z,21.02
2023-04-27T16:52:34.108Z,21.52
2023-04-27T16:57:36.642Z,22.12
2023-04-27T17:02:40.503Z,22.97
2023-04-27T17:07:44.553Z,23.31
2023-04-27T17:12:46.844Z,23.80
2023-04-27T17:17:49.133Z,24.29
2023-04-27T17:22:51.358Z,24.74
2023-04-27T17:27:53.595Z,24.94
2023-04-27T17:32:55.990Z,25.28
2023-04-27T17:37:58.348Z,25.33
2023-04-27T17:43:00.588Z,26.51
2023-04-27T17:48:03.305Z,27.22
2023-04-27T17:53:05.674Z,28.61
2023-04-27T17:58:08.047Z,29.82
2023-04-27T18:03:11.818Z,31.13
2023-04-27T18:08:14.117Z,31.96
2023-04-27T18:13:16.805Z,33.00
2023-04-27T18:18:23.237Z,33.48
2023-04-27T18:23:27.460Z,34.05
2023-04-27T18:28:29.777Z,34.64
2023-04-27T18:33:32.000Z,35.40
2023-04-27T18:38:34.296Z,35.72
2023-04-27T18:43:39.798Z,40.52
2023-04-27T18:48:42.337Z,40.39
2023-04-27T18:53:44.480Z,38.90
2023-04-27T18:58:48.842Z,38.83
2023-04-27T19:03:51.873Z,38.57
2023-04-27T19:08:54.313Z,38.66
2023-04-27T19:13:57.402Z,38.76
2023-04-27T19:18:59.633Z,39.11
2023-04-27T19:24:02.015Z,39.08
2023-04-27T19:29:04.377Z,39.32
2023-04-27T19:34:06.677Z,39.52
2023-04-27T19:39:09.020Z,39.62
2023-04-27T19:44:11.507Z,39.78
2023-04-27T19:49:14.469Z,40.07
2023-04-27T19:54:17.365Z,40.48
2023-04-27T19:59:19.829Z,40.75
2023-04-27T20:04:22.457Z,40.73
2023-04-27T20:09:25.047Z,41.05
2023-04-27T20:14:29.525Z,41.30
2023-04-27T20:19:32.624Z,41.56
2023-04-27T20:24:35.897Z,41.94
2023-04-27T20:29:38.503Z,41.57
2023-04-27T20:34:40.780Z,42.23
2023-04-27T20:39:43.564Z,42.75
2023-04-27T20:44:48.872Z,42.18
2023-04-27T20:49:51.701Z,42.16
2023-04-27T20:54:54.227Z,42.17
2023-04-27T20:59:56.503Z,42.30
2023-04-27T21:04:58.794Z,42.46
2023-04-27T21:10:06.351Z,42.73
2023-04-27T21:15:09.214Z,43.20
2023-04-27T21:20:11.941Z,43.67
2023-04-27T21:25:14.368Z,43.46
2023-04-27T21:30:16.895Z,43.78
2023-04-27T21:35:19.093Z,43.44
2023-04-27T21:40:21.545Z,43.60
2023-04-27T21:45:24.233Z,44.02
2023-04-27T21:50:26.363Z,44.54
2023-04-27T21:55:28.562Z,45.33
2023-04-27T22:00:30.731Z,45.06
2023-04-27T22:05:33.839Z,45.62
2023-04-27T22:10:36.714Z,45.19
2023-04-27T22:15:42.120Z,45.16
2023-04-27T22:20:44.485Z,45.11
2023-04-27T22:25:47.137Z,46.21
2023-04-27T22:30:49.390Z,46.00
2023-04-27T22:35:51.773Z,46.27
2023-04-27T22:40:53.985Z,46.59
2023-04-27T22:45:56.275Z,46.77
2023-04-27T22:50:58.458Z,47.94
2023-04-27T22:56:01.498Z,47.45
2023-04-27T23:01:04.501Z,47.65
2023-04-27T23:06:08.008Z,47.40
2023-04-27T23:11:13.995Z,47.18
2023-04-27T23:16:16.440Z,46.83
2023-04-27T23:21:18.929Z,47.06
2023-04-27T23:26:21.679Z,47.42
2023-04-27T23:31:24.313Z,47.09
2023-04-27T23:36:26.893Z,46.94
2023-04-27T23:41:29.134Z,46.80
2023-04-27T23:46:31.396Z,46.48
2023-04-27T23:51:34.007Z,46.17
2023-04-27T23:56:37.027Z,46.24
